Time;durP1;ratioP1;P1;durP2;ratioP2;P2;SDS_P1;SDS_P2;PMS_P1;PMS_P2;Temp;Humidity;BMP_temperature;BMP_pressure;BME280_temperature;BME280_humidity;BME280_pressure;Samples;Min_cycle;Max_cycle;Signal;HPM_P1;HPM_P2
2023/10/27 00:00:58;;;;;;;2.88;1.88;;;9.50;99.90;;;;;;5022481;28;20478;-81
2023/10/27 00:03:23;;;;;;;2.50;1.08;;;9.50;99.90;;;;;;5021181;28;20046;-80
2023/10/27 00:05:49;;;;;;;4.97;2.65;;;9.50;99.90;;;;;;5022119;28;20073;-80
2023/10/27 00:08:15;;;;;;;1.55;1.17;;;9.50;99.90;;;;;;5022445;28;20058;-80
2023/10/27 00:10:41;;;;;;;1.00;0.98;;;9.50;99.90;;;;;;5037055;28;20057;-80
2023/10/27 00:13:06;;;;;;;1.27;1.13;;;9.50;99.90;;;;;;5021880;28;20411;-80
2023/10/27 00:15:32;;;;;;;1.52;1.42;;;9.50;99.90;;;;;;5022770;28;20048;-80
2023/10/27 00:17:58;;;;;;;3.08;1.42;;;9.50;99.90;;;;;;5022246;28;20052;-80
2023/10/27 00:20:24;;;;;;;0.70;0.70;;;9.50;99.90;;;;;;5022540;28;20484;-80
2023/10/27 00:22:50;;;;;;;4.57;1.75;;;9.50;99.90;;;;;;5022199;28;20505;-80
2023/10/27 00:25:15;;;;;;;1.48;1.00;;;9.50;99.90;;;;;;5021102;28;20069;-80
2023/10/27 00:27:41;;;;;;;1.25;0.63;;;9.50;99.90;;;;;;5022158;28;20038;-80
2023/10/27 00:30:09;;;;;;;2.45;1.35;;;9.50;99.90;;;;;;5021950;28;20515;-80
2023/10/27 00:32:36;;;;;;;2.67;1.80;;;9.50;99.90;;;;;;5021777;28;20064;-80
2023/10/27 00:35:02;;;;;;;2.65;1.85;;;9.50;99.90;;;;;;5022551;28;20049;-80
2023/10/27 00:37:28;;;;;;;1.55;1.08;;;9.40;99.90;;;;;;5022181;28;20041;-80
2023/10/27 00:39:53;;;;;;;0.85;0.85;;;9.40;99.90;;;;;;5022472;28;20037;-80
2023/10/27 00:42:19;;;;;;;0.77;0.50;;;9.40;99.90;;;;;;5021771;28;20042;-80
2023/10/27 00:44:44;;;;;;;1.17;1.08;;;9.30;99.90;;;;;;5021771;28;20054;-80
2023/10/27 00:47:10;;;;;;;1.77;0.98;;;9.30;99.90;;;;;;5021420;28;20103;-80
2023/10/27 00:49:36;;;;;;;3.25;1.63;;;9.30;99.90;;;;;;5021839;28;20034;-80
2023/10/27 00:52:02;;;;;;;3.47;1.90;;;9.30;99.90;;;;;;5021076;28;20034;-80
2023/10/27 00:54:28;;;;;;;2.05;1.77;;;9.30;99.90;;;;;;5022048;28;20444;-80
2023/10/27 00:56:55;;;;;;;1.17;1.08;;;9.30;99.90;;;;;;5021594;28;20121;-80
2023/10/27 00:59:21;;;;;;;2.85;2.08;;;9.40;99.90;;;;;;5021079;28;20046;-80
2023/10/27 01:01:47;;;;;;;0.45;0.30;;;9.30;99.90;;;;;;5022024;28;20499;-80
2023/10/27 01:04:12;;;;;;;0.30;0.30;;;9.40;99.90;;;;;;5020696;28;20488;-81
2023/10/27 01:06:38;;;;;;;7.28;2.03;;;9.30;99.90;;;;;;5022378;28;20456;-80
2023/10/27 01:09:03;;;;;;;3.15;1.88;;;9.30;99.90;;;;;;5013296;28;20095;-81
2023/10/27 01:11:29;;;;;;;1.98;1.48;;;9.30;99.90;;;;;;5021932;28;20050;-80
2023/10/27 01:13:55;;;;;;;1.27;1.02;;;9.30;99.90;;;;;;5021464;28;20034;-80
2023/10/27 01:16:21;;;;;;;2.72;1.70;;;9.30;99.90;;;;;;5020509;28;20052;-80
2023/10/27 01:18:47;;;;;;;0.15;0.15;;;9.30;99.90;;;;;;5021036;28;20129;-80
2023/10/27 01:21:13;;;;;;;3.42;1.48;;;9.30;99.90;;;;;;5020698;28;20104;-80
2023/10/27 01:23:39;;;;;;;3.10;1.55;;;9.30;99.90;;;;;;5020909;28;20431;-80
2023/10/27 01:26:04;;;;;;;0.73;0.65;;;9.30;99.90;;;;;;5020774;28;20049;-80
2023/10/27 01:28:33;;;;;;;3.20;0.52;;;9.40;99.90;;;;;;5020377;28;20065;-80
2023/10/27 01:30:59;;;;;;;1.58;1.40;;;9.40;99.90;;;;;;5004696;28;20125;-80
2023/10/27 01:33:24;;;;;;;0.60;0.60;;;9.40;99.90;;;;;;5020771;28;20471;-80
2023/10/27 01:35:54;;;;;;;1.92;1.45;;;9.40;99.90;;;;;;5020724;28;20391;-80
2023/10/27 01:38:20;;;;;;;1.50;1.40;;;9.40;99.90;;;;;;5018930;28;20045;-80
2023/10/27 01:40:46;;;;;;;6.93;2.58;;;9.40;99.90;;;;;;5020182;28;20529;-80
2023/10/27 01:43:12;;;;;;;2.22;1.75;;;9.40;99.90;;;;;;5034680;28;20123;-80
2023/10/27 01:45:37;;;;;;;2.15;1.58;;;9.40;99.90;;;;;;5021050;28;20132;-81
2023/10/27 01:48:03;;;;;;;0.63;0.52;;;9.40;99.90;;;;;;5021030;28;20042;-81
2023/10/27 01:50:29;;;;;;;1.02;0.90;;;9.40;99.90;;;;;;5021153;28;20550;-81
2023/10/27 01:52:55;;;;;;;2.40;1.35;;;9.40;99.90;;;;;;5020707;28;20046;-80
2023/10/27 01:55:21;;;;;;;2.10;1.92;;;9.40;99.90;;;;;;5020272;28;20042;-80
2023/10/27 01:57:46;;;;;;;3.33;2.00;;;9.30;99.90;;;;;;5019574;28;20061;-81
2023/10/27 02:00:12;;;;;;;1.33;1.23;;;9.40;99.90;;;;;;5019998;28;20038;-80
2023/10/27 02:02:38;;;;;;;1.75;1.42;;;9.30;99.90;;;;;;5020484;28;20038;-80
2023/10/27 02:05:04;;;;;;;2.03;1.42;;;9.30;99.90;;;;;;5020081;28;20057;-80
2023/10/27 02:07:30;;;;;;;1.90;0.80;;;9.30;99.90;;;;;;5020236;28;20041;-80
2023/10/27 02:09:59;;;;;;;2.38;1.35;;;9.20;99.90;;;;;;5020245;28;20033;-80
2023/10/27 02:12:28;;;;;;;1.65;1.55;;;9.20;99.90;;;;;;5020035;28;20042;-80
2023/10/27 02:14:54;;;;;;;1.02;0.90;;;9.20;99.90;;;;;;5019626;28;20074;-80
2023/10/27 02:17:20;;;;;;;2.60;2.17;;;9.40;99.90;;;;;;5019538;28;20050;-79
2023/10/27 02:19:47;;;;;;;6.38;1.48;;;9.10;99.90;;;;;;5019521;28;20400;-80
2023/10/27 02:22:13;;;;;;;1.48;1.38;;;9.10;99.90;;;;;;5019003;28;20498;-80
2023/10/27 02:24:38;;;;;;;2.60;1.38;;;9.10;99.90;;;;;;5019296;28;20388;-80
2023/10/27 02:27:04;;;;;;;3.65;1.95;;;9.10;99.90;;;;;;5019310;28;20049;-80
2023/10/27 02:29:30;;;;;;;2.88;1.85;;;9.10;99.90;;;;;;5019964;28;20042;-80
2023/10/27 02:31:55;;;;;;;0.90;0.90;;;9.20;99.90;;;;;;5001965;28;20044;-80
2023/10/27 02:34:21;;;;;;;3.75;2.08;;;9.20;99.90;;;;;;5019566;28;20042;-80
2023/10/27 02:36:47;;;;;;;2.53;1.55;;;9.20;99.90;;;;;;5019972;28;20058;-80
2023/10/27 02:39:12;;;;;;;3.65;2.45;;;9.20;99.90;;;;;;5019588;28;20408;-80
2023/10/27 02:41:38;;;;;;;3.58;2.33;;;9.30;99.90;;;;;;5019985;28;20042;-80
2023/10/27 02:44:04;;;;;;;1.38;1.10;;;9.20;99.90;;;;;;5019899;28;20044;-80
2023/10/27 02:46:30;;;;;;;1.75;1.65;;;9.20;99.90;;;;;;5019455;28;20034;-80
2023/10/27 02:48:56;;;;;;;9.82;2.05;;;9.20;99.90;;;;;;5018787;28;20037;-80
2023/10/27 02:51:21;;;;;;;1.42;1.20;;;9.30;99.90;;;;;;5019527;28;20041;-80
2023/10/27 02:53:47;;;;;;;0.40;0.40;;;9.30;99.90;;;;;;5019808;28;20115;-80
2023/10/27 02:56:13;;;;;;;3.40;2.17;;;9.30;99.90;;;;;;5018995;28;20065;-80
2023/10/27 02:58:39;;;;;;;2.92;1.95;;;9.30;99.90;;;;;;5019260;28;20145;-80
2023/10/27 03:01:14;;;;;;;3.47;1.90;;;9.30;99.90;;;;;;5019235;28;20045;-80
2023/10/27 03:03:39;;;;;;;2.03;1.30;;;9.30;99.90;;;;;;5018742;28;20088;-80
2023/10/27 03:06:05;;;;;;;2.55;0.82;;;9.30;99.90;;;;;;5019021;28;20450;-80
2023/10/27 03:08:32;;;;;;;0.15;0.15;;;9.30;99.90;;;;;;5019272;28;20033;-80
2023/10/27 03:10:58;;;;;;;1.35;0.82;;;9.30;99.90;;;;;;5019083;28;20512;-80
2023/10/27 03:13:23;;;;;;;1.00;0.95;;;9.30;99.90;;;;;;5018120;28;20117;-80
2023/10/27 03:15:49;;;;;;;1.38;1.27;;;9.30;99.90;;;;;;5018444;28;20037;-80
2023/10/27 03:18:14;;;;;;;3.03;1.65;;;9.20;99.90;;;;;;5018792;28;20049;-80
2023/10/27 03:20:40;;;;;;;1.38;0.95;;;9.20;99.90;;;;;;5017568;28;20057;-80
2023/10/27 03:23:06;;;;;;;2.10;1.15;;;9.10;99.90;;;;;;5018862;28;20038;-80
2023/10/27 03:25:31;;;;;;;3.70;1.52;;;9.20;99.90;;;;;;5018139;28;20065;-80
2023/10/27 03:27:57;;;;;;;1.17;1.08;;;9.10;99.90;;;;;;5018572;28;20056;-79
2023/10/27 03:30:24;;;;;;;4.80;1.85;;;9.10;99.90;;;;;;5018064;28;20042;-80
2023/10/27 03:32:50;;;;;;;4.15;1.25;;;9.10;99.90;;;;;;5020280;28;20052;-80
2023/10/27 03:35:15;;;;;;;3.33;2.08;;;9.10;99.90;;;;;;5021806;28;20042;-80
2023/10/27 03:37:41;;;;;;;3.72;0.90;;;9.10;99.90;;;;;;5022765;28;20057;-80
2023/10/27 03:40:07;;;;;;;1.45;1.00;;;9.10;99.90;;;;;;5021862;28;20042;-80
2023/10/27 03:42:33;;;;;;;1.05;0.88;;;9.10;99.90;;;;;;5021869;28;20042;-80
2023/10/27 03:44:59;;;;;;;1.23;1.13;;;9.10;99.90;;;;;;5020458;28;20046;-80
2023/10/27 03:47:25;;;;;;;1.75;0.75;;;9.10;99.90;;;;;;5022585;28;20376;-80
2023/10/27 03:49:51;;;;;;;2.80;0.95;;;9.00;99.90;;;;;;5021747;28;20569;-80
2023/10/27 03:52:17;;;;;;;0.30;0.30;;;9.00;99.90;;;;;;5020899;28;20064;-80
2023/10/27 03:54:42;;;;;;;2.38;0.55;;;9.00;99.90;;;;;;5021177;28;20129;-80
2023/10/27 03:57:08;;;;;;;3.72;0.63;;;9.00;99.90;;;;;;5021277;28;20496;-80
2023/10/27 03:59:34;;;;;;;1.75;1.48;;;8.90;99.90;;;;;;5022248;28;20042;-80
2023/10/27 04:01:59;;;;;;;1.45;0.88;;;8.90;99.90;;;;;;5022173;28;20038;-80
2023/10/27 04:04:25;;;;;;;0.65;0.47;;;8.90;99.90;;;;;;5022592;28;20046;-80
2023/10/27 04:06:50;;;;;;;0.47;0.47;;;8.90;99.90;;;;;;5022214;28;20097;-81
2023/10/27 04:09:16;;;;;;;0.57;0.57;;;8.90;99.90;;;;;;5021054;28;20045;-80
2023/10/27 04:11:42;;;;;;;0.68;0.65;;;8.80;99.90;;;;;;5021904;28;20042;-80
2023/10/27 04:14:08;;;;;;;1.63;1.33;;;8.80;99.90;;;;;;5021300;28;20056;-80
2023/10/27 04:16:34;;;;;;;2.83;1.65;;;8.70;99.90;;;;;;5020790;28;20038;-80
2023/10/27 04:19:00;;;;;;;0.38;0.38;;;8.70;99.90;;;;;;5021329;28;20510;-80
2023/10/27 04:21:26;;;;;;;1.00;0.90;;;8.90;99.90;;;;;;5021055;28;20048;-80
2023/10/27 04:23:52;;;;;;;3.95;1.25;;;8.70;99.90;;;;;;5021448;28;20081;-80
2023/10/27 04:26:18;;;;;;;0.20;0.20;;;8.60;99.90;;;;;;5021027;28;20159;-80
2023/10/27 04:28:43;;;;;;;0.10;0.10;;;8.60;99.90;;;;;;5020925;28;20037;-80
2023/10/27 04:31:09;;;;;;;0.47;0.45;;;8.60;99.90;;;;;;5021215;28;20404;-80
2023/10/27 04:33:38;;;;;;;1.13;1.02;;;8.60;99.90;;;;;;5020299;28;20038;-80
2023/10/27 04:36:06;;;;;;;1.92;1.42;;;8.60;99.90;;;;;;5021613;28;20037;-80
2023/10/27 04:38:32;;;;;;;1.73;1.17;;;8.80;99.90;;;;;;5021464;28;20808;-81
2023/10/27 04:40:58;;;;;;;1.83;1.23;;;10.00;99.90;;;;;;5021476;28;20041;-80
2023/10/27 04:43:23;;;;;;;1.55;1.20;;;8.80;99.90;;;;;;5020659;28;20042;-81
2023/10/27 04:45:49;;;;;;;1.27;0.85;;;8.80;99.90;;;;;;5021101;28;20058;-80
2023/10/27 04:48:15;;;;;;;1.17;1.08;;;8.90;99.90;;;;;;5021167;28;20053;-80
2023/10/27 04:50:41;;;;;;;1.25;0.90;;;8.90;99.90;;;;;;5021461;28;20041;-80
2023/10/27 04:53:07;;;;;;;2.63;0.40;;;8.90;99.90;;;;;;5021634;28;20057;-81
2023/10/27 04:55:33;;;;;;;0.63;0.40;;;8.90;99.90;;;;;;5020587;28;20038;-80
2023/10/27 04:57:59;;;;;;;0.73;0.65;;;8.90;99.90;;;;;;5021572;28;20046;-80
2023/10/27 05:00:25;;;;;;;1.65;1.20;;;8.90;99.90;;;;;;5021052;28;20072;-80
2023/10/27 05:02:53;;;;;;;2.08;1.98;;;8.90;99.90;;;;;;5021858;28;20042;-80
2023/10/27 05:05:20;;;;;;;4.18;1.70;;;8.90;99.90;;;;;;5019991;28;20053;-80
2023/10/27 05:07:47;;;;;;;2.53;1.30;;;9.00;99.90;;;;;;5021144;28;20049;-81
2023/10/27 05:10:12;;;;;;;1.45;1.35;;;9.00;99.90;;;;;;5021209;28;20782;-81
2023/10/27 05:12:38;;;;;;;0.93;0.88;;;9.00;99.90;;;;;;5021167;28;20045;-80
2023/10/27 05:15:05;;;;;;;1.00;0.90;;;9.00;99.90;;;;;;5020960;28;20519;-80
2023/10/27 05:17:34;;;;;;;0.45;0.45;;;9.00;99.90;;;;;;5021400;28;20050;-80
2023/10/27 05:20:02;;;;;;;0.85;0.85;;;9.00;99.90;;;;;;5020763;28;20034;-80
2023/10/27 05:22:27;;;;;;;1.65;1.55;;;9.00;99.90;;;;;;5019195;28;20707;-80
2023/10/27 05:24:53;;;;;;;1.30;1.20;;;9.10;99.90;;;;;;5019834;28;20034;-80
2023/10/27 05:27:19;;;;;;;1.83;1.42;;;9.50;99.90;;;;;;5020460;28;20046;-81
2023/10/27 05:29:44;;;;;;;1.70;1.40;;;9.10;99.90;;;;;;5021137;28;20045;-80
2023/10/27 05:32:12;;;;;;;1.35;1.10;;;9.10;99.90;;;;;;5020171;28;20041;-80
2023/10/27 05:34:38;;;;;;;5.57;1.80;;;9.10;99.90;;;;;;5019348;28;20452;-81
2023/10/27 05:37:03;;;;;;;0.98;0.77;;;9.10;99.90;;;;;;5020473;28;20447;-80
2023/10/27 05:39:29;;;;;;;1.55;1.02;;;9.10;99.90;;;;;;5019731;28;20238;-80
2023/10/27 05:41:55;;;;;;;1.48;1.25;;;9.10;99.90;;;;;;5020464;28;20038;-80
2023/10/27 05:44:20;;;;;;;2.05;1.45;;;9.10;99.90;;;;;;5020054;28;20046;-80
2023/10/27 05:46:46;;;;;;;0.98;0.88;;;9.10;99.90;;;;;;5020828;28;20033;-80
2023/10/27 05:49:12;;;;;;;1.65;1.55;;;9.10;99.90;;;;;;5017410;28;20042;-79
2023/10/27 05:51:38;;;;;;;1.10;0.98;;;9.10;99.90;;;;;;5017564;28;20042;-79
2023/10/27 05:54:05;;;;;;;1.02;0.68;;;9.10;99.90;;;;;;5019202;28;20425;-80
2023/10/27 05:56:30;;;;;;;4.45;0.85;;;9.10;99.90;;;;;;5018914;28;20062;-81
2023/10/27 05:58:56;;;;;;;1.17;1.00;;;9.10;99.90;;;;;;5019544;28;20096;-80
2023/10/27 06:01:22;;;;;;;2.25;1.60;;;9.10;99.90;;;;;;5018743;28;20045;-80
2023/10/27 06:03:49;;;;;;;0.95;0.77;;;9.10;99.90;;;;;;5020513;28;20042;-80
2023/10/27 06:06:14;;;;;;;1.40;1.25;;;9.10;99.90;;;;;;5020686;28;20399;-80
2023/10/27 06:08:44;;;;;;;1.35;0.85;;;9.10;99.90;;;;;;5020667;28;20042;-80
2023/10/27 06:11:11;;;;;;;0.85;0.70;;;9.10;99.90;;;;;;5020050;28;20054;-80
2023/10/27 06:13:36;;;;;;;0.65;0.52;;;9.10;99.90;;;;;;5020163;28;20049;-80
2023/10/27 06:16:03;;;;;;;1.63;0.75;;;9.10;99.90;;;;;;5020100;28;20053;-80
2023/10/27 06:18:28;;;;;;;1.45;1.15;;;9.10;99.90;;;;;;5021068;28;20034;-80
2023/10/27 06:20:54;;;;;;;1.17;1.08;;;9.10;99.90;;;;;;5019767;28;20041;-80
2023/10/27 06:23:19;;;;;;;2.20;1.10;;;9.10;99.90;;;;;;5020107;28;20042;-80
2023/10/27 06:25:46;;;;;;;1.38;1.27;;;9.10;99.90;;;;;;5018615;28;20046;-81
2023/10/27 06:28:12;;;;;;;1.45;0.85;;;9.10;99.90;;;;;;5017592;28;20056;-80
2023/10/27 06:30:38;;;;;;;6.28;2.03;;;9.10;99.90;;;;;;5017816;28;20049;-80
2023/10/27 06:33:03;;;;;;;5.30;1.52;;;9.10;99.90;;;;;;5016870;28;20507;-80
2023/10/27 06:35:29;;;;;;;2.65;2.10;;;9.10;99.90;;;;;;5017240;28;20128;-81
2023/10/27 06:37:55;;;;;;;1.45;1.25;;;9.10;99.90;;;;;;5017737;28;20049;-80
2023/10/27 06:40:22;;;;;;;5.60;1.98;;;9.20;99.90;;;;;;5018772;28;20092;-80
2023/10/27 06:42:48;;;;;;;1.55;0.85;;;9.20;99.90;;;;;;5017428;28;20464;-80
2023/10/27 06:45:14;;;;;;;3.95;1.75;;;9.20;99.90;;;;;;5016536;28;20045;-80
2023/10/27 06:47:40;;;;;;;0.85;0.85;;;9.20;99.90;;;;;;5018688;28;20402;-80
2023/10/27 06:50:06;;;;;;;0.80;0.80;;;9.30;99.90;;;;;;5018328;28;20053;-81
2023/10/27 06:52:33;;;;;;;1.50;0.77;;;9.30;99.90;;;;;;5018153;28;20041;-80
2023/10/27 06:54:59;;;;;;;1.15;0.93;;;9.30;99.90;;;;;;5016846;28;20038;-80
2023/10/27 06:57:25;;;;;;;1.98;1.45;;;9.30;99.90;;;;;;5017554;28;20077;-80
2023/10/27 06:59:51;;;;;;;2.10;1.23;;;9.30;99.90;;;;;;5015185;28;20050;-81
2023/10/27 07:02:17;;;;;;;1.02;0.95;;;9.30;99.90;;;;;;5018036;28;20608;-80
2023/10/27 07:04:43;;;;;;;1.10;1.08;;;9.30;99.90;;;;;;5017415;28;20050;-80
2023/10/27 07:07:09;;;;;;;1.00;0.90;;;9.30;99.90;;;;;;5016762;28;20093;-79
2023/10/27 07:09:35;;;;;;;1.30;0.50;;;9.30;99.90;;;;;;5017137;28;20052;-80
2023/10/27 07:12:00;;;;;;;1.25;0.80;;;9.40;99.90;;;;;;5017301;28;20046;-80
2023/10/27 07:14:26;;;;;;;4.40;2.47;;;9.40;99.90;;;;;;5016694;28;20052;-79
2023/10/27 07:16:54;;;;;;;0.38;0.38;;;9.40;99.90;;;;;;5018127;28;20038;-80
2023/10/27 07:19:20;;;;;;;0.52;0.38;;;9.70;99.90;;;;;;5017461;28;20049;-80
2023/10/27 07:21:46;;;;;;;2.70;1.90;;;9.40;99.90;;;;;;5017307;28;20042;-80
2023/10/27 07:24:12;;;;;;;1.45;1.35;;;9.50;99.90;;;;;;5015832;28;20096;-80
2023/10/27 07:26:37;;;;;;;2.28;1.60;;;9.50;99.90;;;;;;5017063;28;20038;-80
2023/10/27 07:29:03;;;;;;;2.38;0.60;;;9.50;99.90;;;;;;5017647;28;20041;-80
2023/10/27 07:31:29;;;;;;;0.77;0.70;;;9.50;99.90;;;;;;5017124;28;20522;-80
2023/10/27 07:33:55;;;;;;;0.98;0.90;;;9.50;99.90;;;;;;5017588;28;20044;-80
2023/10/27 07:36:21;;;;;;;1.73;1.15;;;9.50;99.90;;;;;;5017645;28;20381;-80
2023/10/27 07:38:49;;;;;;;0.38;0.38;;;9.50;99.90;;;;;;5016861;28;20133;-80
2023/10/27 07:41:15;;;;;;;1.08;0.68;;;10.00;99.90;;;;;;5017358;28;20065;-80
2023/10/27 07:43:41;;;;;;;0.47;0.47;;;9.50;99.90;;;;;;5017601;28;20375;-80
2023/10/27 07:46:06;;;;;;;0.90;0.85;;;9.60;99.90;;;;;;5017029;28;20463;-80
2023/10/27 07:48:32;;;;;;;1.30;0.73;;;9.60;99.90;;;;;;5016733;28;20042;-80
2023/10/27 07:50:58;;;;;;;1.77;1.13;;;9.50;99.90;;;;;;5017922;28;20042;-80
2023/10/27 07:53:28;;;;;;;2.88;0.88;;;9.60;99.90;;;;;;5017244;28;20125;-80
2023/10/27 07:55:54;;;;;;;1.13;0.75;;;10.80;99.90;;;;;;5017098;28;20061;-80
2023/10/27 07:58:25;;;;;;;0.88;0.85;;;9.60;99.90;;;;;;5017006;28;20053;-80
2023/10/27 08:00:53;;;;;;;1.83;1.13;;;9.60;99.90;;;;;;5017789;28;20069;-80
2023/10/27 08:03:22;;;;;;;1.83;0.73;;;9.60;99.90;;;;;;5016909;28;20085;-80
2023/10/27 08:05:48;;;;;;;0.50;0.50;;;9.60;99.90;;;;;;5014094;28;20558;-80
2023/10/27 08:08:14;;;;;;;5.68;1.83;;;9.80;99.90;;;;;;5017009;28;20061;-79
2023/10/27 08:10:40;;;;;;;0.77;0.68;;;9.70;99.90;;;;;;5017198;28;20347;-80
2023/10/27 08:13:05;;;;;;;4.38;1.27;;;9.70;99.90;;;;;;5017126;28;20061;-80
2023/10/27 08:15:32;;;;;;;2.25;1.13;;;9.70;99.90;;;;;;5015014;28;20049;-80
2023/10/27 08:17:58;;;;;;;1.45;0.90;;;9.70;99.90;;;;;;5017048;28;20052;-81
2023/10/27 08:20:24;;;;;;;2.75;0.90;;;9.70;99.90;;;;;;5020245;28;20041;-80
2023/10/27 08:22:50;;;;;;;1.85;1.13;;;9.80;99.90;;;;;;5017021;28;20056;-80
2023/10/27 08:25:16;;;;;;;0.75;0.65;;;9.80;99.90;;;;;;5018729;28;20370;-80
2023/10/27 08:27:41;;;;;;;0.98;0.95;;;9.80;99.90;;;;;;5017685;28;20142;-79
2023/10/27 08:30:07;;;;;;;1.38;1.25;;;11.00;99.90;;;;;;5017424;28;20101;-79
2023/10/27 08:32:33;;;;;;;1.25;1.15;;;9.80;93.10;;;;;;5003746;28;20492;-81
2023/10/27 08:34:59;;;;;;;2.20;1.55;;;9.80;9.60;;;;;;5019145;28;20120;-80
2023/10/27 08:37:25;;;;;;;3.10;1.40;;;9.80;99.90;;;;;;5019750;28;20074;-81
2023/10/27 08:39:51;;;;;;;1.08;0.98;;;9.80;99.90;;;;;;5020178;28;20054;-81
2023/10/27 08:42:18;;;;;;;1.48;1.38;;;9.80;99.90;;;;;;5020341;28;20038;-81
2023/10/27 08:44:45;;;;;;;2.17;1.63;;;9.80;99.90;;;;;;5020101;28;20053;-81
2023/10/27 08:47:12;;;;;;;2.80;1.27;;;9.90;99.90;;;;;;5019507;28;20081;-80
2023/10/27 08:49:38;;;;;;;0.73;0.70;;;9.90;1.00;;;;;;5018373;28;20133;-80
2023/10/27 08:52:04;;;;;;;4.22;1.17;;;9.90;99.90;;;;;;5019932;28;20447;-81
2023/10/27 08:54:31;;;;;;;0.47;0.47;;;10.10;99.90;;;;;;5019710;28;20050;-81
2023/10/27 08:56:56;;;;;;;1.17;0.73;;;10.10;99.90;;;;;;5019634;28;20046;-81
2023/10/27 08:59:22;;;;;;;1.33;1.08;;;10.20;99.90;;;;;;5020311;28;20056;-81
2023/10/27 09:01:48;;;;;;;5.72;0.88;;;10.30;1.00;;;;;;5019822;28;20053;-81
2023/10/27 09:04:19;;;;;;;1.65;1.40;;;10.30;99.90;;;;;;5019678;28;20041;-80
2023/10/27 09:06:44;;;;;;;2.60;1.25;;;10.30;99.90;;;;;;5020403;28;20400;-81
2023/10/27 09:09:10;;;;;;;1.25;0.85;;;10.40;1.00;;;;;;5021630;28;20048;-80
2023/10/27 09:11:40;;;;;;;0.52;0.52;;;10.40;99.90;;;;;;5020359;28;20084;-78
2023/10/27 09:14:15;;;;;;;1.15;0.80;;;10.40;1.00;;;;;;5014747;28;20058;-79
2023/10/27 09:16:41;;;;;;;1.30;1.08;;;10.50;37.40;;;;;;5015483;28;20034;-78
2023/10/27 09:19:24;;;;;;;1.60;0.80;;;10.50;1.00;;;;;;5014894;28;20045;-78
2023/10/27 09:21:52;;;;;;;0.82;0.73;;;10.50;99.90;;;;;;5015734;28;20052;-78
2023/10/27 09:24:25;;;;;;;9.48;1.40;;;10.50;1.00;;;;;;5015430;28;20049;-78
2023/10/27 09:26:51;;;;;;;2.05;1.42;;;10.50;1.00;;;;;;5018879;28;20037;-79
2023/10/27 09:29:17;;;;;;;2.28;1.40;;;10.50;99.90;;;;;;5018826;28;20081;-80
2023/10/27 09:31:43;;;;;;;3.65;0.75;;;10.50;99.90;;;;;;5000458;28;20042;-79
2023/10/27 09:34:21;;;;;;;1.73;1.33;;;10.50;99.90;;;;;;5018090;28;20042;-79
2023/10/27 09:36:56;;;;;;;1.90;0.47;;;10.60;1.00;;;;;;5010295;28;20492;-78
2023/10/27 09:39:23;;;;;;;2.92;1.27;;;10.50;24.90;;;;;;5017065;28;20053;-78
2023/10/27 09:42:02;;;;;;;1.00;0.95;;;10.50;99.90;;;;;;5042681;28;20522;-79
2023/10/27 09:44:55;;;;;;;1.27;0.98;;;10.50;1.00;;;;;;5020663;28;20068;-79
2023/10/27 09:47:34;;;;;;;0.30;0.30;;;10.60;91.40;;;;;;5020639;28;20092;-80
2023/10/27 09:50:07;;;;;;;1.15;1.08;;;10.60;99.90;;;;;;5013189;28;20407;-80
2023/10/27 09:52:34;;;;;;;0.47;0.47;;;10.60;1.00;;;;;;5020358;28;20383;-80
2023/10/27 09:55:02;;;;;;;0.75;0.52;;;10.60;37.30;;;;;;5019888;28;20747;-79
2023/10/27 09:57:31;;;;;;;1.83;0.93;;;10.60;21.90;;;;;;5019502;28;20065;-79
2023/10/27 09:59:59;;;;;;;1.23;1.13;;;10.60;99.90;;;;;;5019703;28;20056;-79
2023/10/27 10:02:26;;;;;;;1.75;1.40;;;10.60;99.90;;;;;;5019658;28;20034;-80
2023/10/27 10:04:51;;;;;;;0.80;0.63;;;10.60;64.60;;;;;;5020391;28;20042;-80
2023/10/27 10:07:34;;;;;;;0.65;0.65;;;10.70;99.90;;;;;;5020293;28;20538;-79
2023/10/27 10:10:22;;;;;;;2.25;0.75;;;10.80;1.00;;;;;;5020007;28;20491;-80
2023/10/27 10:13:12;;;;;;;1.42;0.85;;;10.80;1.00;;;;;;5019066;28;20460;-79
2023/10/27 10:15:45;;;;;;;2.17;0.98;;;10.90;99.90;;;;;;5013262;28;20076;-79
2023/10/27 10:18:19;;;;;;;4.35;1.15;;;11.00;1.00;;;;;;5019240;28;20042;-79
2023/10/27 10:20:45;;;;;;;0.90;0.70;;;10.90;50.00;;;;;;5019707;28;20466;-80
2023/10/27 10:23:11;;;;;;;0.47;0.47;;;11.10;99.90;;;;;;5020020;28;20077;-80
2023/10/27 10:25:53;;;;;;;3.08;1.35;;;11.10;99.90;;;;;;5020598;28;20106;-80
2023/10/27 10:28:18;;;;;;;0.75;0.20;;;11.10;1.00;;;;;;5019628;28;20124;-79
2023/10/27 10:30:46;;;;;;;0.98;0.80;;;11.00;1.00;;;;;;5019982;28;20448;-79
2023/10/27 10:33:15;;;;;;;0.50;0.50;;;11.10;1.00;;;;;;5018206;28;20496;-79
2023/10/27 10:35:42;;;;;;;0.45;0.45;;;11.20;1.00;;;;;;5019471;28;20061;-79
2023/10/27 10:38:20;;;;;;;1.27;0.60;;;11.10;99.90;;;;;;5018656;28;20069;-79
2023/10/27 10:40:52;;;;;;;0.47;0.47;;;11.10;1.00;;;;;;5019869;28;20408;-80
2023/10/27 10:43:33;;;;;;;0.63;0.60;;;11.20;99.90;;;;;;5018106;28;20041;-80
2023/10/27 10:46:03;;;;;;;0.00;0.00;;;11.10;98.40;;;;;;5003658;28;20061;-79
2023/10/27 10:48:31;;;;;;;1.10;0.85;;;11.00;1.00;;;;;;5018954;28;20054;-79
2023/10/27 10:51:03;;;;;;;2.00;1.55;;;11.00;26.30;;;;;;5011088;28;20140;-79
2023/10/27 10:53:30;;;;;;;1.48;0.95;;;11.00;99.90;;;;;;5019158;28;20387;-79
2023/10/27 10:55:58;;;;;;;0.43;0.43;;;10.90;99.90;;;;;;5019501;28;20065;-79
2023/10/27 10:58:30;;;;;;;3.17;1.55;;;10.80;99.90;;;;;;5019177;28;20095;-80
2023/10/27 11:00:57;;;;;;;3.50;1.83;;;10.80;99.90;;;;;;5020198;28;20074;-80
2023/10/27 11:03:28;;;;;;;0.52;0.50;;;10.80;99.90;;;;;;5020427;28;20038;-80
2023/10/27 11:06:01;;;;;;;1.58;1.48;;;10.80;99.90;;;;;;5018182;28;20057;-80
2023/10/27 11:08:39;;;;;;;1.95;1.02;;;10.80;99.90;;;;;;5019537;28;20049;-80
2023/10/27 11:11:13;;;;;;;0.75;0.75;;;10.80;99.90;;;;;;5019392;28;20089;-80
2023/10/27 11:13:51;;;;;;;4.03;1.20;;;10.80;99.90;;;;;;5018867;28;20350;-80
2023/10/27 11:16:24;;;;;;;4.20;1.33;;;10.70;99.90;;;;;;5017400;28;20365;-80
2023/10/27 11:18:57;;;;;;;4.75;0.93;;;10.60;99.90;;;;;;5017892;28;20092;-80
2023/10/27 11:21:27;;;;;;;15.45;1.52;;;10.60;9.00;;;;;;5017626;28;20042;-80
2023/10/27 11:23:54;;;;;;;0.93;0.70;;;10.60;57.90;;;;;;5018128;28;20045;-80
2023/10/27 11:26:21;;;;;;;2.28;1.88;;;10.60;99.90;;;;;;5017849;28;20042;-80
2023/10/27 11:28:47;;;;;;;1.75;1.42;;;10.50;1.00;;;;;;5017549;28;20042;-81
2023/10/27 11:31:22;;;;;;;1.67;1.42;;;10.50;1.00;;;;;;5033165;28;20061;-81
2023/10/27 11:34:02;;;;;;;0.70;0.70;;;10.60;1.70;;;;;;5016773;28;20046;-81
2023/10/27 11:36:29;;;;;;;1.20;1.10;;;10.60;75.10;;;;;;5016891;28;20045;-79
2023/10/27 11:38:55;;;;;;;1.10;1.00;;;10.60;99.90;;;;;;5016326;28;20057;-81
2023/10/27 11:41:22;;;;;;;1.65;1.38;;;10.90;99.90;;;;;;5017368;28;20427;-82
2023/10/27 11:43:47;;;;;;;1.38;1.27;;;10.70;99.90;;;;;;5032861;28;20100;-82
2023/10/27 11:46:18;;;;;;;3.65;1.77;;;10.70;1.00;;;;;;5016298;28;20046;-81
2023/10/27 11:48:44;;;;;;;3.20;1.48;;;10.70;99.90;;;;;;5016865;28;20050;-80
2023/10/27 11:51:11;;;;;;;3.05;1.77;;;10.70;1.00;;;;;;5016989;28;20508;-81
2023/10/27 11:53:41;;;;;;;2.35;1.35;;;10.80;99.90;;;;;;5018374;28;20182;-80
2023/10/27 11:56:07;;;;;;;2.63;1.00;;;10.70;1.00;;;;;;5005156;28;20503;-81
2023/10/27 11:58:32;;;;;;;1.98;1.27;;;11.90;29.00;;;;;;5019336;28;20049;-81
2023/10/27 12:00:58;;;;;;;0.88;0.82;;;10.80;99.90;;;;;;5019987;28;20038;-80
2023/10/27 12:03:23;;;;;;;0.93;0.93;;;10.70;99.90;;;;;;5020649;28;20935;-81
2023/10/27 12:05:49;;;;;;;4.22;1.52;;;10.70;1.00;;;;;;5035882;28;20049;-80
2023/10/27 12:08:14;;;;;;;1.52;1.40;;;10.70;99.90;;;;;;5018268;28;20096;-80
2023/10/27 12:10:40;;;;;;;0.80;0.75;;;10.70;99.90;;;;;;5019900;28;20041;-80
2023/10/27 12:13:08;;;;;;;1.83;1.25;;;10.70;99.90;;;;;;5051293;28;20038;-80
2023/10/27 12:15:34;;;;;;;1.35;1.00;;;10.70;1.50;;;;;;5019638;28;20415;-81
2023/10/27 12:18:04;;;;;;;1.25;0.98;;;10.60;1.00;;;;;;5019800;28;20050;-80
2023/10/27 12:20:30;;;;;;;0.28;0.28;;;10.60;57.00;;;;;;4999867;28;20504;-80
2023/10/27 12:22:56;;;;;;;1.95;1.40;;;10.60;91.10;;;;;;5016215;28;20065;-81
2023/10/27 12:25:22;;;;;;;2.30;1.77;;;10.70;99.90;;;;;;5020176;28;20045;-80
2023/10/27 12:27:48;;;;;;;3.75;1.80;;;10.70;99.90;;;;;;5018581;28;20049;-80
2023/10/27 12:30:15;;;;;;;3.55;2.03;;;10.70;99.90;;;;;;5020769;28;20045;-80
2023/10/27 12:32:42;;;;;;;2.30;1.65;;;10.60;1.00;;;;;;5019511;28;20034;-80
2023/10/27 12:35:08;;;;;;;1.38;1.05;;;10.50;1.00;;;;;;5019999;28;20046;-80
2023/10/27 12:37:34;;;;;;;4.45;0.47;;;10.50;99.90;;;;;;5019669;28;20060;-80
2023/10/27 12:40:00;;;;;;;1.85;1.30;;;10.40;1.00;;;;;;5020043;28;20038;-80
2023/10/27 12:42:28;;;;;;;1.92;1.42;;;10.40;99.90;;;;;;5020370;28;20419;-81
2023/10/27 12:44:56;;;;;;;1.85;1.35;;;10.30;99.90;;;;;;5020508;28;20125;-81
2023/10/27 12:47:21;;;;;;;2.53;1.42;;;10.60;1.00;;;;;;5020065;28;20106;-81
2023/10/27 12:49:48;;;;;;;1.00;0.73;;;10.40;1.00;;;;;;5019622;28;20069;-81
2023/10/27 12:52:14;;;;;;;1.25;1.15;;;10.40;1.00;;;;;;5019475;28;20074;-81
2023/10/27 12:54:39;;;;;;;4.07;2.22;;;10.50;99.90;;;;;;5020432;28;20041;-82